Latest Weather Observations for Pallamana

IDS60801

Issued at 11:05 pm CST Tuesday 30 September 2014 (issued every 30 minutes, with the page automatically refreshed every 10 minutes)

About weather observations | Map of weather stations | Latest weather observations for SA | Other Formats
Station Details ID: 024584 Name: PALLAMANA AERODROME Lat: -35.06 Lon: 139.23 Height: 45.0 m
Data from the previous 72 hours. | See also: Recent months at Pallamana
Date/Time
CST
Temp
°C
App
Temp
°C
Dew
Point
Rel
Hum
%
Delta-T
°C
Wind Press
QNH
hPa
Press
MSL
hPa
Rain
since 9 am
mm
Dir
 
Spd
km/h
Gust
km/h
Spd
kts
Gust
kts
30/11:00pm 10.9 6.5 7.3 78 1.7 WSW 20 26 11 14 1022.6 1022.6 0.0
30/10:30pm 10.5 6.8 8.0 84 1.2 SW 17 22 9 12 1022.3 1022.3 0.0
30/10:00pm 10.0 6.3 6.3 78 1.7 WSW 15 15 8 8 1022.2 1022.2 0.0
30/09:30pm 10.2 6.5 6.1 76 1.9 SW 15 19 8 10 1021.9 1021.9 0.0
30/09:00pm 10.9 6.6 6.9 76 1.9 SW 19 22 10 12 1021.5 1021.5 0.0
30/08:30pm 11.6 7.6 6.8 72 2.3 SSW 17 28 9 15 1021.2 1021.2 0.0
30/08:00pm 11.5 8.3 6.9 73 2.2 SW 13 15 7 8 1020.4 1020.4 0.0
30/07:30pm 13.0 10.2 7.0 67 2.9 WSW 11 15 6 8 1019.9 1019.9 0.0
30/07:00pm 13.6 9.5 6.3 61 3.5 W 17 22 9 12 1019.2 1019.2 0.0
30/06:30pm 14.1 8.6 5.9 57 3.9 W 24 33 13 18 1018.6 1018.6 0.0
30/06:00pm 15.0 9.4 5.5 53 4.5 W 24 33 13 18 1018.0 1018.0 0.0
30/05:30pm 15.6 9.8 6.1 53 4.6 W 26 37 14 20 1017.4 1017.4 0.0
30/05:00pm 16.4 9.3 5.3 47 5.3 W 32 44 17 24 1017.0 1017.0 0.0
30/04:30pm 17.2 8.7 5.1 44 5.8 WSW 39 52 21 28 1016.4 1016.4 0.0
30/04:00pm 17.9 8.7 5.3 43 6.1 WSW 43 59 23 32 1015.9 1015.9 0.0
30/03:33pm 17.6 9.8 8.2 54 4.8 WSW 39 57 21 31 1015.6 1015.6 0.0
30/03:30pm 18.3 9.5 7.2 48 5.6 WSW 43 57 23 31 1015.5 1015.5 0.0
30/03:00pm 18.2 9.9 7.8 50 5.3 W 41 59 22 32 1015.3 1015.3 0.0
30/02:30pm 18.0 9.7 9.2 56 4.6 W 43 65 23 35 1014.9 1014.9 0.0
30/02:22pm 18.0 9.3 8.5 53 4.9 W 44 65 24 35 1014.9 1014.9 0.0
30/02:00pm 18.6 9.8 9.7 56 4.7 WSW 46 61 25 33 1014.6 1014.6 0.0
30/01:30pm 21.1 12.0 6.8 39 7.3 W 44 63 24 34 1013.9 1013.9 0.0
30/01:00pm 19.5 11.7 8.1 47 5.9 W 39 57 21 31 1013.9 1013.9 0.0
30/12:30pm 19.9 11.7 8.1 46 6.1 W 41 61 22 33 1013.8 1013.8 0.0
30/12:00pm 20.5 11.7 7.2 42 6.8 W 43 61 23 33 1013.5 1013.5 0.0
30/11:30am 20.6 11.6 6.6 40 7.1 W 43 65 23 35 1013.0 1013.0 0.0
30/11:00am 20.8 12.5 6.3 39 7.3 W 39 59 21 32 1013.0 1013.0 0.0
30/10:33am 20.8 11.7 5.8 37 7.5 W 43 61 23 33 1012.8 1012.8 0.0
30/10:30am 21.1 12.0 5.7 36 7.7 W 43 57 23 31 1012.8 1012.8 0.0
30/10:12am 20.3 11.7 6.7 41 6.9 W 41 59 22 32 1012.8 1012.8 0.0
30/10:00am 20.2 11.2 6.5 41 6.9 W 43 57 23 31 1012.7 1012.7 0.0
30/09:30am 20.8 12.7 6.9 40 7.1 W 39 61 21 33 1012.6 1012.6 0.0
30/09:24am 20.2 12.8 6.8 41 6.8 WNW 35 61 19 33 1012.5 1012.5 0.0
30/09:00am 20.0 12.5 6.2 40 6.9 WNW 35 50 19 27 1012.5 1012.5 0.0
30/08:32am 20.6 14.0 4.3 34 7.9 WNW 28 50 15 27 1012.5 1012.5 0.0
30/08:30am 20.8 14.5 4.0 33 8.1 WNW 26 37 14 20 1012.5 1012.5 0.0
30/08:00am 18.6 13.3 5.0 40 6.6 NNW 22 32 12 17 1012.4 1012.4 0.0
30/07:30am 16.4 13.8 7.9 57 4.3 N 11 19 6 10 1011.7 1011.7 0.0
30/07:00am 12.3 10.0 8.9 80 1.7 NNE 11 15 6 8 1012.4 1012.4 0.0
30/06:30am 10.3 7.4 8.2 87 1.0 N 13 17 7 9 1012.3 1012.3 0.0
30/06:00am 10.0 5.9 7.9 87 1.0 N 19 22 10 12 1012.0 1012.0 0.0
30/05:30am 10.1 6.4 8.0 87 1.0 NNW 17 20 9 11 1011.9 1011.9 0.0
30/05:00am 10.1 6.1 8.3 88 0.9 N 19 22 10 12 1011.6 1011.6 0.0
30/04:30am 10.7 7.2 8.9 89 0.9 NNW 17 20 9 11 1011.6 1011.6 0.0
30/04:00am 8.9 5.9 7.9 93 0.5 NNW 13 15 7 8 1011.6 1011.6 0.0
30/03:30am 7.7 4.8 6.6 93 0.5 NNW 11 15 6 8 1011.7 1011.7 0.0
30/03:00am 8.8 6.1 7.5 91 0.6 NNW 11 13 6 7 1011.9 1011.9 0.0
30/02:30am 7.5 4.9 6.2 91 0.6 N 9 11 5 6 1012.0 1012.0 0.0
30/02:00am 8.2 5.3 6.7 90 0.7 N 11 13 6 7 1012.5 1012.5 0.0
30/01:30am 11.9 9.6 9.1 83 1.4 WNW 11 17 6 9 1012.9 1012.9 0.0
30/01:29am 11.9 9.2 9.1 83 1.4 WNW 13 17 7 9 1012.9 1012.9 0.0
30/01:00am 6.9 5.1 5.3 89 0.7 W 4 9 2 5 1013.3 1013.3 0.0
30/12:30am 7.6 6.6 5.6 87 0.9 CALM 0 6 0 3 1013.8 1013.8 0.0
30/12:00am 9.1 7.3 7.2 88 0.9 NNW 6 7 3 4 1014.3 1014.3 0.0
 
Date/Time
CST
Temp
°C
App
Temp
°C
Dew
Point
Rel
Hum
%
Delta-T
°C
Wind Press
QNH
hPa
Press
MSL
hPa
Rain
since 9 am
mm
Dir
 
Spd
km/h
Gust
km/h
Spd
kts
Gust
kts
29/11:30pm 9.7 7.4 7.4 85 1.1 NNW 9 13 5 7 1014.5 1014.5 0.0
29/11:00pm 8.9 6.3 6.3 84 1.2 NNW 9 11 5 6 1014.7 1014.7 0.0
29/10:30pm 9.7 8.9 6.7 81 1.4 CALM 0 0 0 0 1014.9 1014.9 0.0
29/10:00pm 10.3 9.5 6.5 77 1.8 CALM 0 0 0 0 1015.0 1015.0 0.0
29/09:30pm 10.8 9.0 7.2 78 1.7 SSW 6 7 3 4 1014.7 1014.7 0.0
29/09:00pm 11.1 10.0 7.1 76 1.9 SW 2 6 1 3 1014.4 1014.4 0.0
29/08:30pm 10.7 8.7 6.4 75 2.0 SW 6 9 3 5 1014.2 1014.2 0.0
29/08:00pm 10.9 9.6 6.2 73 2.2 WNW 2 6 1 3 1014.1 1014.1 0.0
29/07:30pm 14.6 12.5 6.8 59 3.8 NW 7 9 4 5 1013.8 1013.8 0.0
29/07:00pm 15.1 12.8 7.4 60 3.8 WNW 9 11 5 6 1013.4 1013.4 0.0
29/06:30pm 17.0 14.2 6.9 51 5.0 WNW 11 13 6 7 1013.2 1013.2 0.0
29/06:00pm 18.6 15.1 7.1 47 5.8 WNW 15 20 8 11 1013.0 1013.0 0.0
29/05:30pm 20.1 15.8 6.9 42 6.7 WNW 19 26 10 14 1013.1 1013.1 0.0
29/05:00pm 21.0 15.7 6.6 39 7.3 WNW 24 32 13 17 1012.9 1012.9 0.0
29/04:30pm 21.4 16.5 6.7 38 7.5 WNW 22 32 12 17 1012.6 1012.6 0.0
29/04:00pm 22.0 17.1 6.8 37 7.8 WNW 22 33 12 18 1012.5 1012.5 0.0
29/03:30pm 22.2 17.6 6.5 36 8.0 NW 20 30 11 16 1012.5 1012.5 0.0
29/03:00pm 22.6 17.5 6.1 34 8.4 NNW 22 30 12 16 1012.6 1012.6 0.0
29/02:30pm 22.8 17.6 5.5 32 8.7 WNW 22 28 12 15 1012.8 1012.8 0.0
29/02:00pm 22.0 15.7 5.9 35 8.1 NW 28 33 15 18 1013.3 1013.3 0.0
29/01:30pm 22.6 17.6 6.3 34 8.3 NNW 22 32 12 17 1013.6 1013.6 0.0
29/01:00pm 21.2 16.6 6.4 38 7.5 WNW 20 32 11 17 1014.0 1014.0 0.0
29/12:30pm 21.7 17.1 6.3 36 7.8 WNW 20 41 11 22 1014.1 1014.1 0.0
29/12:00pm 20.8 16.4 6.6 39 7.2 NW 19 32 10 17 1014.7 1014.7 0.0
29/11:30am 20.5 16.4 6.4 40 7.1 NW 17 28 9 15 1015.0 1015.0 0.0
29/11:00am 20.7 16.8 7.0 41 7.0 WNW 17 24 9 13 1015.6 1015.6 0.0
29/10:30am 19.1 14.8 7.0 45 6.1 NW 19 24 10 13 1015.8 1015.8 0.0
29/10:00am 18.3 14.5 7.4 49 5.5 WNW 17 22 9 12 1016.1 1016.1 0.0
29/09:30am 18.2 14.7 8.8 54 4.9 N 17 24 9 13 1016.1 1016.1 0.0
29/09:00am 18.2 14.8 9.0 55 4.8 NNW 17 26 9 14 1016.1 1016.1 0.0
29/08:30am 15.7 13.2 9.7 67 3.1 N 13 19 7 10 1015.9 1015.9 0.0
29/08:00am 15.7 14.7 10.2 70 2.9 N 6 9 3 5 1015.6 1015.6 0.0
29/07:30am 12.4 10.7 9.7 83 1.4 N 9 11 5 6 1015.5 1015.5 0.0
29/07:00am 9.9 7.4 8.3 90 0.8 NNW 11 13 6 7 1015.6 1015.6 0.0
29/06:30am 7.6 5.4 6.1 90 0.7 NNW 7 13 4 7 1015.4 1015.4 0.0
29/06:00am 7.3 3.9 6.0 91 0.6 NW 13 17 7 9 1015.1 1015.1 0.0
29/05:30am 8.2 5.4 6.9 91 0.6 NW 11 15 6 8 1014.9 1014.9 0.0
29/05:00am 6.8 3.7 5.7 93 0.5 NNW 11 15 6 8 1014.6 1014.6 0.0
29/04:30am 9.9 7.4 8.3 90 0.8 W 11 13 6 7 1014.3 1014.3 0.0
29/04:00am 9.6 7.4 7.9 89 0.8 W 9 13 5 7 1014.1 1014.1 0.0
29/03:30am 11.6 9.1 8.4 81 1.6 WNW 11 15 6 8 1013.9 1013.9 0.0
29/03:00am 11.1 9.0 8.2 82 1.4 WNW 9 15 5 8 1013.9 1013.9 0.0
29/02:30am 12.9 9.8 8.7 75 2.1 WNW 15 19 8 10 1013.8 1013.8 0.0
29/02:00am 10.7 8.4 7.6 81 1.5 NNE 9 15 5 8 1014.0 1014.0 0.0
29/01:30am 12.5 11.4 8.5 76 2.0 W 4 13 2 7 1014.1 1014.1 0.0
29/01:00am 13.7 10.9 8.5 71 2.6 W 13 26 7 14 1014.2 1014.2 0.0
29/12:30am 14.0 10.1 8.6 70 2.7 W 19 26 10 14 1014.3 1014.3 0.0
29/12:00am 14.1 10.9 8.3 68 2.9 W 15 20 8 11 1014.4 1014.4 0.0
 
Date/Time
CST
Temp
°C
App
Temp
°C
Dew
Point
Rel
Hum
%
Delta-T
°C
Wind Press
QNH
hPa
Press
MSL
hPa
Rain
since 9 am
mm
Dir
 
Spd
km/h
Gust
km/h
Spd
kts
Gust
kts
28/11:30pm 14.4 10.2 7.5 63 3.4 W 19 26 10 14 1014.1 1014.1 0.0
28/11:00pm 14.3 11.3 7.6 64 3.3 W 13 20 7 11 1014.2 1014.2 0.0
28/10:30pm 13.5 11.3 7.8 68 2.8 WSW 9 17 5 9 1013.9 1013.9 0.0
28/10:00pm 14.1 11.5 7.6 65 3.2 WSW 11 17 6 9 1013.6 1013.6 0.0
28/09:30pm 14.6 10.6 8.2 65 3.2 WSW 19 26 10 14 1013.6 1013.6 0.0
28/09:00pm 15.0 10.1 8.5 65 3.3 WSW 24 39 13 21 1013.4 1013.4 0.0
28/08:30pm 14.8 10.5 7.8 63 3.5 SW 20 30 11 16 1013.0 1013.0 0.0
28/08:00pm 15.2 11.6 8.3 63 3.5 SW 17 30 9 16 1012.3 1012.3 0.0
28/07:30pm 15.4 11.2 8.3 62 3.6 WSW 20 30 11 16 1011.6 1011.6 0.0
28/07:00pm 16.1 11.3 7.3 56 4.4 W 22 35 12 19 1010.3 1010.3 0.0
28/06:35pm 16.8 10.1 7.4 54 4.7 W 32 50 17 27 1009.6 1009.6 0.0
28/06:30pm 16.9 9.7 7.6 54 4.7 W 35 50 19 27 1009.4 1009.4 0.0
28/06:00pm 17.5 10.4 7.9 53 4.9 W 35 48 19 26 1008.7 1008.7 0.0
28/05:30pm 18.9 10.4 7.0 46 6.0 W 41 54 22 29 1008.3 1008.3 0.0
28/05:00pm 20.2 11.3 6.8 41 6.8 WSW 43 52 23 28 1007.8 1007.8 0.0
28/04:30pm 23.0 15.7 8.6 39 7.7 W 37 48 20 26 1006.9 1006.9 0.0
28/04:14pm 26.3 18.6 7.3 30 10.1 WSW 37 52 20 28 1006.2 1006.2 0.0
28/04:00pm 28.7 20.8 2.2 18 13.1 W 33 48 18 26 1005.8 1005.8 0.0
28/03:30pm 29.3 18.8 -2.8 12 14.6 WNW 43 63 23 34 1005.4 1005.4 0.0
28/03:02pm 29.7 20.3 -2.7 12 14.7 WNW 37 56 20 30 1005.5 1005.5 0.0
28/03:00pm 29.7 19.9 -2.7 12 14.8 WNW 39 56 21 30 1005.6 1005.6 0.0
28/02:44pm 29.9 20.0 -0.7 14 14.4 W 41 67 22 36 1005.5 1005.5 0.0
28/02:30pm 30.8 18.5 -3.0 11 15.5 NW 52 70 28 38 1005.4 1005.4 0.0
28/02:00pm 31.2 18.9 -2.9 11 15.6 NW 52 76 28 41 1005.6 1005.6 0.0
28/01:30pm 31.0 18.9 -1.9 12 15.4 NW 52 78 28 42 1005.5 1005.5 0.0
28/01:00pm 30.6 17.6 -2.6 11 15.2 NW 56 80 30 43 1006.0 1006.0 0.0
28/12:30pm 30.1 16.0 -4.1 10 15.3 NW 61 87 33 47 1006.4 1006.4 0.0
28/12:00pm 30.4 17.2 -2.7 11 15.2 NNW 57 91 31 49 1006.5 1006.5 0.0
28/11:30am 31.0 19.1 -3.0 11 15.6 NNW 50 74 27 40 1006.8 1006.8 0.0
28/11:00am 29.8 17.6 -2.4 12 14.7 NNW 52 85 28 46 1007.0 1007.0 0.0
28/10:30am 29.8 18.0 -2.0 12 14.7 NNW 50 70 27 38 1007.5 1007.5 0.0
28/10:00am 29.3 17.2 -1.9 13 14.4 NNW 52 76 28 41 1007.8 1007.8 0.0
28/09:33am 28.5 16.7 -2.7 13 14.1 N 50 69 27 37 1008.2 1008.2 0.0
28/09:30am 28.3 16.6 -1.8 14 13.8 N 50 65 27 35 1008.2 1008.2 0.0
28/09:06am 28.3 15.2 -3.8 12 14.2 NNW 56 74 30 40 1008.5 1008.5 0.0
28/09:05am 28.2 19.3 -2.0 14 13.8 N 35 74 19 40 1008.5 1008.5 0.0
28/09:00am 27.1 19.2 2.4 20 12.1 N 33 43 18 23 1008.4 1008.4 0.0
28/08:30am 23.3 15.4 4.6 29 9.3 N 35 48 19 26 1007.6 1007.6 0.0
28/08:00am 21.7 14.5 4.9 33 8.3 N 32 43 17 23 1007.7 1007.7 0.0
28/07:30am 20.0 12.6 5.1 37 7.3 NNE 33 44 18 24 1007.9 1007.9 0.0
28/07:00am 18.5 12.0 4.8 40 6.6 N 28 37 15 20 1008.4 1008.4 0.0
28/06:30am 17.2 10.7 4.9 44 5.9 N 28 35 15 19 1008.7 1008.7 0.0
28/06:00am 16.3 10.6 5.0 47 5.4 N 24 30 13 16 1008.6 1008.6 0.0
28/05:30am 16.4 11.5 5.1 47 5.4 N 20 24 11 13 1008.7 1008.7 0.0
28/05:00am 18.1 11.9 4.5 40 6.5 N 26 35 14 19 1008.8 1008.8 0.0
28/04:30am 22.2 14.8 1.9 26 9.5 N 30 37 16 20 1009.1 1009.1 0.0
28/04:00am 21.2 15.1 2.5 29 8.8 N 24 35 13 19 1009.4 1009.4 0.0
28/03:30am 21.3 15.2 3.0 30 8.7 N 24 32 13 17 1009.8 1009.8 0.0
28/03:00am 21.6 15.6 3.2 30 8.8 N 24 32 13 17 1010.3 1010.3 0.0
28/02:30am 21.4 15.0 3.2 30 8.7 N 26 33 14 18 1010.6 1010.6 0.0
28/02:00am 22.0 16.3 2.9 28 9.1 N 22 32 12 17 1011.3 1011.3 0.0
28/01:51am 17.2 12.4 4.6 43 6.0 N 19 28 10 15 1011.3 1011.3 0.0
28/01:30am 22.2 15.3 2.6 27 9.3 N 28 35 15 19 1011.3 1011.3 0.0
28/01:00am 21.7 16.3 2.7 28 9.0 N 20 32 11 17 1011.9 1011.9 0.0
28/12:30am 18.4 13.4 4.4 39 6.7 N 20 26 11 14 1012.4 1012.4 0.0
28/12:00am 15.8 11.0 4.8 48 5.2 N 19 20 10 11 1012.6 1012.6 0.0
 
Date/Time
CST
Temp
°C
App
Temp
°C
Dew
Point
Rel
Hum
%
Delta-T
°C
Wind Press
QNH
hPa
Press
MSL
hPa
Rain
since 9 am
mm
Dir
 
Spd
km/h
Gust
km/h
Spd
kts
Gust
kts
27/11:30pm 16.7 11.9 4.7 45 5.7 N 19 22 10 12 1012.9 1012.9 0.0

Other Formats:

Comma delimited format used in spreadsheet applications
http://www.bom.gov.au/fwo/IDS60801/IDS60801.95818.axf

JavaScript Object Notation format (JSON) in row-major order
http://www.bom.gov.au/fwo/IDS60801/IDS60801.95818.json